createdAt,value
2022-08-27T00:00:55.632Z,8.52
2022-08-27T00:03:41.016Z,8.40
2022-08-27T00:06:27.360Z,8.48
2022-08-27T00:09:12.729Z,8.62
2022-08-27T00:11:59.096Z,8.58
2022-08-27T00:14:44.702Z,8.48
2022-08-27T00:17:29.926Z,8.43
2022-08-27T00:20:18.696Z,8.30
2022-08-27T00:23:04.313Z,8.25
2022-08-27T00:25:49.728Z,8.18
2022-08-27T00:28:35.665Z,8.20
2022-08-27T00:31:23.657Z,8.26
2022-08-27T00:34:13.329Z,8.33
2022-08-27T00:36:58.955Z,8.45
2022-08-27T00:39:44.410Z,8.34
2022-08-27T00:42:31.041Z,8.41
2022-08-27T00:45:23.093Z,8.31
2022-08-27T00:48:12.807Z,8.17
2022-08-27T00:50:58.383Z,8.27
2022-08-27T00:53:44.481Z,8.30
2022-08-27T00:56:37.653Z,8.20
2022-08-27T00:59:25.896Z,8.11
2022-08-27T01:02:21.144Z,8.11
2022-08-27T01:05:10.949Z,8.26
2022-08-27T01:08:02.395Z,8.47
2022-08-27T01:10:49.674Z,8.45
2022-08-27T01:13:59.129Z,8.44
2022-08-27T01:16:46.686Z,8.42
2022-08-27T01:19:43.899Z,8.40
2022-08-27T01:22:41.758Z,8.50
2022-08-27T01:25:28.458Z,8.62
2022-08-27T01:28:15.085Z,8.77
2022-08-27T01:31:01.217Z,8.90
2022-08-27T01:34:03.419Z,8.77
2022-08-27T01:36:48.997Z,8.56
2022-08-27T01:39:36.665Z,8.38
2022-08-27T01:42:33.541Z,8.25
2022-08-27T01:45:24.701Z,8.11
2022-08-27T01:48:10.301Z,8.08
2022-08-27T01:50:56.211Z,8.00
2022-08-27T01:53:43.010Z,8.03
2022-08-27T01:56:28.444Z,7.89
2022-08-27T01:59:14.536Z,7.88
2022-08-27T02:02:02.502Z,7.92
2022-08-27T02:04:48.115Z,7.79
2022-08-27T02:07:33.492Z,7.59
2022-08-27T02:10:24.343Z,7.57
2022-08-27T02:13:11.765Z,7.60
2022-08-27T02:15:57.176Z,7.48
2022-08-27T02:18:42.658Z,7.41
2022-08-27T02:21:28.389Z,7.30
2022-08-27T02:24:13.883Z,7.21
2022-08-27T02:26:59.527Z,7.24
2022-08-27T02:29:44.990Z,7.23
2022-08-27T02:32:35.203Z,7.07
2022-08-27T02:35:22.987Z,7.02
2022-08-27T02:38:08.380Z,7.02
2022-08-27T02:40:53.954Z,6.99
2022-08-27T02:43:39.936Z,6.93
2022-08-27T02:46:25.531Z,6.98
2022-08-27T02:49:11.496Z,7.14
2022-08-27T02:51:58.093Z,7.18
2022-08-27T02:54:44.506Z,7.21
2022-08-27T02:57:36.469Z,7.12
2022-08-27T03:00:23.134Z,7.13
2022-08-27T03:03:10.751Z,7.03
2022-08-27T03:05:58.746Z,7.05
2022-08-27T03:08:52.603Z,7.13
2022-08-27T03:11:39.704Z,7.36
2022-08-27T03:14:25.349Z,7.52
2022-08-27T03:17:29.525Z,7.50
2022-08-27T03:20:15.121Z,7.51
2022-08-27T03:23:00.775Z,7.39
2022-08-27T03:25:57.882Z,7.55
2022-08-27T03:28:44.583Z,7.45
2022-08-27T03:31:30.028Z,7.44
2022-08-27T03:34:19.813Z,7.57
2022-08-27T03:37:05.934Z,7.53
2022-08-27T03:39:52.198Z,7.71
2022-08-27T03:42:39.079Z,7.81
2022-08-27T03:45:24.738Z,7.90
2022-08-27T03:48:11.079Z,8.10
2022-08-27T03:50:57.398Z,8.02
2022-08-27T03:53:44.981Z,7.64
2022-08-27T03:56:30.186Z,7.53
2022-08-27T03:59:16.034Z,7.48
2022-08-27T04:02:02.681Z,7.55
2022-08-27T04:04:48.207Z,7.57
2022-08-27T04:07:34.101Z,7.63
2022-08-27T04:10:19.976Z,7.78
2022-08-27T04:13:05.571Z,7.74
2022-08-27T04:15:52.998Z,7.73
2022-08-27T04:18:38.735Z,7.76
2022-08-27T04:21:24.313Z,7.82
2022-08-27T04:24:12.050Z,7.83
2022-08-27T04:26:57.881Z,7.85
2022-08-27T04:29:43.404Z,7.93
2022-08-27T04:32:29.755Z,7.96
2022-08-27T04:35:15.644Z,7.95
2022-08-27T04:38:01.086Z,7.99
2022-08-27T04:41:04.929Z,8.08
2022-08-27T04:43:53.497Z,8.21
2022-08-27T04:46:40.732Z,8.28
2022-08-27T04:49:29.880Z,8.26
2022-08-27T04:52:17.589Z,8.32
2022-08-27T04:55:03.446Z,8.34
2022-08-27T04:57:48.772Z,8.51
2022-08-27T05:00:34.091Z,8.56
2022-08-27T05:03:26.257Z,8.60
2022-08-27T05:06:13.263Z,8.66
2022-08-27T05:08:59.245Z,8.71
2022-08-27T05:11:45.494Z,8.72
2022-08-27T05:14:32.781Z,8.69
2022-08-27T05:17:18.549Z,8.74
2022-08-27T05:20:05.309Z,8.73
2022-08-27T05:22:51.170Z,8.69
2022-08-27T05:25:42.065Z,8.70
2022-08-27T05:28:29.213Z,8.74
2022-08-27T05:31:15.976Z,8.83
2022-08-27T05:34:02.408Z,8.89
2022-08-27T05:36:55.891Z,8.98
2022-08-27T05:39:41.307Z,9.09
2022-08-27T05:42:26.719Z,9.17
2022-08-27T05:45:14.953Z,9.24
2022-08-27T05:48:00.210Z,9.30
2022-08-27T05:50:45.801Z,9.38
2022-08-27T05:53:31.175Z,9.39
2022-08-27T05:56:22.418Z,9.39
2022-08-27T05:59:26.277Z,9.41
2022-08-27T06:02:12.549Z,9.41
2022-08-27T06:04:58.238Z,9.41
2022-08-27T06:07:44.237Z,9.45
2022-08-27T06:10:29.869Z,9.46
2022-08-27T06:13:15.489Z,9.51
2022-08-27T06:16:06.798Z,9.55
2022-08-27T06:18:53.182Z,9.61
2022-08-27T06:21:40.904Z,9.68
2022-08-27T06:24:26.310Z,9.78
2022-08-27T06:27:15.115Z,9.84
2022-08-27T06:30:00.499Z,9.92
2022-08-27T06:32:45.855Z,9.99
2022-08-27T06:35:34.047Z,10.08
2022-08-27T06:38:19.652Z,10.18
2022-08-27T06:41:08.491Z,10.26
2022-08-27T06:44:08.808Z,10.37
2022-08-27T06:46:54.364Z,10.46
2022-08-27T06:49:41.501Z,10.56
2022-08-27T06:52:29.476Z,10.66
2022-08-27T06:55:14.868Z,10.73
2022-08-27T06:58:00.299Z,10.78
2022-08-27T07:00:48.868Z,10.83
2022-08-27T07:03:34.484Z,10.88
2022-08-27T07:06:19.777Z,10.93
2022-08-27T07:09:06.969Z,10.94
2022-08-27T07:11:52.643Z,10.98
2022-08-27T07:14:38.503Z,11.01
2022-08-27T07:17:24.240Z,11.02
2022-08-27T07:20:10.214Z,11.04
2022-08-27T07:22:58.731Z,11.09
2022-08-27T07:25:44.168Z,11.10
2022-08-27T07:28:29.987Z,11.16
2022-08-27T07:31:19.064Z,11.20
2022-08-27T07:34:06.308Z,11.27
2022-08-27T07:36:51.753Z,11.36
2022-08-27T07:39:37.009Z,11.43
2022-08-27T07:42:40.931Z,11.56
2022-08-27T07:45:27.843Z,11.68
2022-08-27T07:48:13.506Z,11.75
2022-08-27T07:50:59.383Z,11.85
2022-08-27T07:53:46.686Z,11.94
2022-08-27T07:56:32.331Z,12.04
2022-08-27T07:59:17.826Z,12.11
2022-08-27T08:02:03.880Z,12.20
2022-08-27T08:04:49.323Z,12.28
2022-08-27T08:07:35.183Z,12.37
2022-08-27T08:10:22.486Z,12.44
2022-08-27T08:13:08.069Z,12.53
2022-08-27T08:15:53.573Z,12.63
2022-08-27T08:18:39.273Z,12.71
2022-08-27T08:21:24.975Z,12.77
2022-08-27T08:24:10.112Z,12.88
2022-08-27T08:26:55.408Z,12.99
2022-08-27T08:29:40.770Z,13.04
2022-08-27T08:32:26.466Z,13.09
2022-08-27T08:35:12.650Z,13.16
2022-08-27T08:37:57.927Z,13.21
2022-08-27T08:40:48.958Z,13.29
2022-08-27T08:43:44.001Z,13.35
2022-08-27T08:46:49.895Z,13.47
2022-08-27T08:50:00.712Z,13.55
2022-08-27T08:52:50.294Z,13.65
2022-08-27T08:55:49.344Z,13.72
2022-08-27T08:58:58.166Z,13.83
2022-08-27T09:01:44.876Z,13.94
2022-08-27T09:04:30.465Z,14.01
2022-08-27T09:07:48.764Z,14.11
2022-08-27T09:10:43.054Z,14.23
2022-08-27T09:13:38.020Z,14.37
2022-08-27T09:16:23.957Z,14.50
2022-08-27T09:19:13.053Z,14.63
2022-08-27T09:22:22.049Z,14.69
2022-08-27T09:25:21.146Z,14.76
2022-08-27T09:28:38.530Z,14.84
2022-08-27T09:31:24.033Z,14.91
2022-08-27T09:34:09.922Z,15.04
2022-08-27T09:37:05.246Z,15.15
2022-08-27T09:39:50.906Z,15.26
2022-08-27T09:42:49.539Z,15.32
2022-08-27T09:45:36.092Z,15.35
2022-08-27T09:48:27.881Z,15.42
2022-08-27T09:51:21.715Z,15.53
2022-08-27T09:54:08.606Z,15.58
2022-08-27T09:56:54.299Z,15.65
2022-08-27T09:59:50.839Z,15.79
2022-08-27T10:02:36.316Z,15.86
2022-08-27T10:05:30.326Z,15.92
2022-08-27T10:08:35.932Z,15.98
2022-08-27T10:11:31.315Z,16.06
2022-08-27T10:14:28.696Z,16.14
2022-08-27T10:17:32.968Z,16.22
2022-08-27T10:20:30.558Z,16.31
2022-08-27T10:23:23.048Z,16.50
2022-08-27T10:26:29.602Z,16.61
2022-08-27T10:29:17.630Z,16.73
2022-08-27T10:32:32.159Z,16.82
2022-08-27T10:35:22.724Z,17.02
2022-08-27T10:38:17.652Z,17.28
2022-08-27T10:41:10.082Z,17.48
2022-08-27T10:43:55.447Z,17.68
2022-08-27T10:47:02.294Z,17.82
2022-08-27T10:50:07.979Z,17.86
2022-08-27T10:53:06.476Z,18.07
2022-08-27T10:56:01.279Z,18.07
2022-08-27T10:58:55.488Z,18.14
2022-08-27T11:02:01.179Z,18.23
2022-08-27T11:04:57.596Z,18.22
2022-08-27T11:07:50.491Z,18.27
2022-08-27T11:10:43.590Z,18.33
2022-08-27T11:13:39.572Z,18.37
2022-08-27T11:16:32.981Z,18.39
2022-08-27T11:19:28.148Z,18.30
2022-08-27T11:22:26.545Z,18.23
2022-08-27T11:25:51.091Z,18.16
2022-08-27T11:28:55.919Z,18.12
2022-08-27T11:31:50.581Z,18.05
2022-08-27T11:35:19.141Z,18.02
2022-08-27T11:38:17.686Z,17.93
2022-08-27T11:41:18.445Z,17.91
2022-08-27T11:44:04.504Z,17.97
2022-08-27T11:47:15.278Z,17.98
2022-08-27T11:50:06.154Z,18.03
2022-08-27T11:53:06.320Z,18.15
2022-08-27T11:55:53.354Z,18.25
2022-08-27T11:58:52.916Z,18.40
2022-08-27T12:01:40.496Z,18.51
2022-08-27T12:04:32.594Z,18.70
2022-08-27T12:07:18.470Z,18.83
2022-08-27T12:10:11.588Z,19.13
2022-08-27T12:13:12.352Z,19.43
2022-08-27T12:16:25.400Z,19.43
2022-08-27T12:19:44.655Z,19.54
2022-08-27T12:23:24.189Z,19.71
2022-08-27T12:26:27.848Z,19.90
2022-08-27T12:29:47.029Z,20.00
2022-08-27T12:32:41.247Z,20.01
2022-08-27T12:35:41.083Z,20.06
2022-08-27T12:38:54.307Z,20.25
2022-08-27T12:41:45.968Z,20.58
2022-08-27T12:44:33.515Z,20.84
2022-08-27T12:47:19.268Z,21.01
2022-08-27T12:50:06.032Z,21.17
2022-08-27T12:53:07.436Z,21.20
2022-08-27T12:56:30.259Z,21.22
2022-08-27T12:59:27.974Z,21.06
2022-08-27T13:02:34.811Z,20.95
2022-08-27T13:05:22.758Z,20.92
2022-08-27T13:08:22.960Z,21.07
2022-08-27T13:11:35.974Z,21.21
2022-08-27T13:14:22.844Z,21.34
2022-08-27T13:17:10.219Z,21.47
2022-08-27T13:20:01.243Z,21.66
2022-08-27T13:22:47.295Z,21.71
2022-08-27T13:25:35.839Z,21.54
2022-08-27T13:28:25.013Z,21.37
2022-08-27T13:31:11.286Z,21.33
2022-08-27T13:33:58.784Z,21.34
2022-08-27T13:37:04.209Z,21.63
2022-08-27T13:39:54.407Z,21.96
2022-08-27T13:42:43.052Z,22.24
2022-08-27T13:45:28.454Z,22.27
2022-08-27T13:48:17.891Z,22.24
2022-08-27T13:51:04.204Z,22.32
2022-08-27T13:54:07.913Z,22.43
2022-08-27T13:56:55.163Z,22.61
2022-08-27T13:59:43.091Z,22.80
2022-08-27T14:02:32.705Z,22.93
2022-08-27T14:05:24.184Z,23.15
2022-08-27T14:08:15.654Z,23.28
2022-08-27T14:11:08.092Z,23.07
2022-08-27T14:13:56.859Z,22.80
2022-08-27T14:16:42.687Z,22.72
2022-08-27T14:19:36.948Z,22.68
2022-08-27T14:22:22.746Z,22.50
2022-08-27T14:25:09.400Z,22.29
2022-08-27T14:27:57.279Z,22.22
2022-08-27T14:30:42.967Z,22.11
2022-08-27T14:33:28.388Z,21.97
2022-08-27T14:36:14.718Z,21.83
2022-08-27T14:39:00.500Z,21.89
2022-08-27T14:41:45.895Z,21.92
2022-08-27T14:44:33.928Z,21.86
2022-08-27T14:47:20.363Z,21.89
2022-08-27T14:50:11.281Z,22.10
2022-08-27T14:52:56.885Z,22.28
2022-08-27T14:55:42.547Z,22.55
2022-08-27T14:58:32.419Z,22.65
2022-08-27T15:01:20.630Z,22.68
2022-08-27T15:04:06.619Z,22.74
2022-08-27T15:06:52.298Z,22.99
2022-08-27T15:09:38.346Z,23.37
2022-08-27T15:12:26.354Z,23.62
2022-08-27T15:15:12.990Z,23.97
2022-08-27T15:17:58.287Z,24.13
2022-08-27T15:20:44.261Z,24.08
2022-08-27T15:23:29.948Z,23.80
2022-08-27T15:26:15.215Z,23.48
2022-08-27T15:29:05.641Z,23.29
2022-08-27T15:31:52.350Z,23.16
2022-08-27T15:34:37.577Z,23.27
2022-08-27T15:37:23.630Z,23.41
2022-08-27T15:40:10.299Z,23.64
2022-08-27T15:42:59.943Z,23.74
2022-08-27T15:45:45.576Z,23.86
2022-08-27T15:48:31.759Z,24.24
2022-08-27T15:51:21.883Z,24.59
2022-08-27T15:54:07.264Z,24.85
2022-08-27T15:56:52.994Z,24.81
2022-08-27T15:59:38.337Z,24.70
2022-08-27T16:02:25.469Z,24.47
2022-08-27T16:05:12.776Z,24.23
2022-08-27T16:07:58.402Z,24.16
2022-08-27T16:10:43.830Z,24.10
2022-08-27T16:13:29.707Z,23.97
2022-08-27T16:16:16.578Z,23.77
2022-08-27T16:19:04.938Z,23.62
2022-08-27T16:21:51.208Z,23.41
2022-08-27T16:24:36.605Z,23.16
2022-08-27T16:27:22.029Z,23.05
2022-08-27T16:30:08.296Z,22.86
2022-08-27T16:32:53.931Z,22.57
2022-08-27T16:35:39.952Z,22.40
2022-08-27T16:38:25.172Z,22.23
2022-08-27T16:41:11.054Z,22.06
2022-08-27T16:43:56.411Z,21.91
2022-08-27T16:46:42.130Z,21.94
2022-08-27T16:49:46.433Z,22.05
2022-08-27T16:52:32.007Z,22.29
2022-08-27T16:55:19.273Z,22.49
2022-08-27T16:58:26.515Z,22.65
2022-08-27T17:01:15.185Z,22.75
2022-08-27T17:04:09.809Z,22.58
2022-08-27T17:06:58.394Z,22.13
2022-08-27T17:09:44.725Z,21.73
2022-08-27T17:12:30.172Z,21.61
2022-08-27T17:15:17.219Z,21.65
2022-08-27T17:18:04.075Z,21.69
2022-08-27T17:20:51.069Z,21.75
2022-08-27T17:23:43.224Z,21.85
2022-08-27T17:26:30.415Z,21.93
2022-08-27T17:29:16.273Z,21.89
2022-08-27T17:32:02.102Z,21.93
2022-08-27T17:34:48.233Z,21.83
2022-08-27T17:37:34.824Z,21.65
2022-08-27T17:40:20.925Z,21.31
2022-08-27T17:43:07.127Z,21.01
2022-08-27T17:45:52.592Z,20.86
2022-08-27T17:48:37.963Z,20.70
2022-08-27T17:51:23.424Z,20.54
2022-08-27T17:54:19.848Z,20.28
2022-08-27T17:57:20.261Z,19.93
2022-08-27T18:00:07.548Z,19.86
2022-08-27T18:02:54.093Z,19.84
2022-08-27T18:05:39.385Z,19.88
2022-08-27T18:08:24.654Z,19.82
2022-08-27T18:11:12.274Z,19.84
2022-08-27T18:14:04.549Z,19.81
2022-08-27T18:16:50.460Z,19.78
2022-08-27T18:19:37.500Z,19.90
2022-08-27T18:22:24.712Z,19.91
2022-08-27T18:25:11.502Z,19.83
2022-08-27T18:28:00.483Z,19.75
2022-08-27T18:30:47.100Z,19.42
2022-08-27T18:33:33.045Z,19.05
2022-08-27T18:36:19.045Z,18.82
2022-08-27T18:39:04.819Z,18.60
2022-08-27T18:41:50.969Z,18.37
2022-08-27T18:44:38.976Z,18.12
2022-08-27T18:47:24.650Z,17.90
2022-08-27T18:50:17.419Z,17.73
2022-08-27T18:53:03.504Z,17.54
2022-08-27T18:55:50.698Z,17.36
2022-08-27T18:58:40.817Z,17.17
2022-08-27T19:01:27.739Z,16.97
2022-08-27T19:04:13.850Z,16.82
2022-08-27T19:06:59.697Z,16.68
2022-08-27T19:09:45.256Z,16.52
2022-08-27T19:12:30.669Z,16.31
2022-08-27T19:15:17.730Z,16.15
2022-08-27T19:18:03.889Z,16.00
2022-08-27T19:20:49.513Z,15.86
2022-08-27T19:23:36.254Z,15.70
2022-08-27T19:26:25.078Z,15.57
2022-08-27T19:29:10.684Z,15.47
2022-08-27T19:31:56.419Z,15.34
2022-08-27T19:34:41.974Z,15.23
2022-08-27T19:37:30.863Z,15.11
2022-08-27T19:40:17.077Z,14.96
2022-08-27T19:43:02.689Z,14.82
2022-08-27T19:45:48.322Z,14.69
2022-08-27T19:48:34.449Z,14.59
2022-08-27T19:51:19.837Z,14.51
2022-08-27T19:54:05.377Z,14.43
2022-08-27T19:56:51.225Z,14.35
2022-08-27T19:59:41.523Z,14.22
2022-08-27T20:02:27.359Z,14.14
2022-08-27T20:05:20.036Z,14.04
2022-08-27T20:08:05.867Z,13.94
2022-08-27T20:10:51.107Z,13.82
2022-08-27T20:13:36.605Z,13.75
2022-08-27T20:16:25.453Z,13.67
2022-08-27T20:19:11.743Z,13.63
2022-08-27T20:21:57.685Z,13.53
2022-08-27T20:24:43.074Z,13.50
2022-08-27T20:27:28.815Z,13.44
2022-08-27T20:30:15.918Z,13.36
2022-08-27T20:33:02.153Z,13.32
2022-08-27T20:35:48.037Z,13.25
2022-08-27T20:38:35.025Z,13.18
2022-08-27T20:41:21.553Z,13.09
2022-08-27T20:44:06.987Z,13.02
2022-08-27T20:46:57.038Z,12.99
2022-08-27T20:49:44.767Z,12.98
2022-08-27T20:52:30.835Z,12.93
2022-08-27T20:55:17.810Z,12.93
2022-08-27T20:58:21.517Z,12.94
2022-08-27T21:01:07.166Z,12.98
2022-08-27T21:03:52.430Z,12.95
2022-08-27T21:06:37.765Z,12.99
2022-08-27T21:09:23.080Z,12.97
2022-08-27T21:12:08.594Z,13.01
2022-08-27T21:14:56.176Z,13.04
2022-08-27T21:17:42.640Z,13.06
2022-08-27T21:20:28.460Z,13.09
2022-08-27T21:23:14.989Z,13.15
2022-08-27T21:26:12.029Z,13.19
2022-08-27T21:28:57.715Z,13.15
2022-08-27T21:31:43.468Z,13.20
2022-08-27T21:34:31.107Z,13.20
2022-08-27T21:37:17.927Z,13.20
2022-08-27T21:40:06.769Z,13.26
2022-08-27T21:42:53.888Z,13.28
2022-08-27T21:45:41.705Z,13.27
2022-08-27T21:48:27.579Z,13.31
2022-08-27T21:51:24.639Z,13.30
2022-08-27T21:54:10.830Z,13.29
2022-08-27T21:56:56.315Z,13.28
2022-08-27T21:59:45.990Z,13.25
2022-08-27T22:02:40.462Z,13.21
2022-08-27T22:05:25.998Z,13.25
2022-08-27T22:08:13.860Z,13.21
2022-08-27T22:10:59.637Z,13.17
2022-08-27T22:13:45.226Z,13.15
2022-08-27T22:16:30.567Z,13.14
2022-08-27T22:19:16.996Z,13.06
2022-08-27T22:22:02.385Z,13.10
2022-08-27T22:24:47.691Z,13.16
2022-08-27T22:27:33.110Z,13.12
2022-08-27T22:30:19.096Z,13.02
2022-08-27T22:33:05.045Z,12.98
2022-08-27T22:35:50.533Z,12.94
2022-08-27T22:38:35.890Z,12.91
2022-08-27T22:41:21.753Z,12.89
2022-08-27T22:44:07.908Z,12.83
2022-08-27T22:46:53.531Z,12.79
2022-08-27T22:49:39.365Z,12.75
2022-08-27T22:52:28.146Z,12.73
2022-08-27T22:55:16.504Z,12.67
2022-08-27T22:58:02.468Z,12.64
2022-08-27T23:00:50.790Z,12.58
2022-08-27T23:03:38.240Z,12.49
2022-08-27T23:06:23.482Z,12.44
2022-08-27T23:09:08.897Z,12.46
2022-08-27T23:11:54.331Z,12.43
2022-08-27T23:14:39.770Z,12.31
2022-08-27T23:17:25.957Z,12.38
2022-08-27T23:20:14.608Z,12.27
2022-08-27T23:23:00.364Z,12.15
2022-08-27T23:26:06.505Z,12.02
2022-08-27T23:28:53.705Z,11.99
2022-08-27T23:31:39.204Z,11.91
2022-08-27T23:34:25.319Z,11.76
2022-08-27T23:37:10.660Z,11.70
2022-08-27T23:39:56.131Z,11.57
2022-08-27T23:42:44.095Z,11.45
2022-08-27T23:45:30.384Z,11.37
2022-08-27T23:48:16.024Z,11.27
2022-08-27T23:51:01.371Z,11.19
2022-08-27T23:53:46.908Z,11.12
2022-08-27T23:56:33.594Z,11.05
2022-08-27T23:59:19.208Z,11.07
